Time;durP1;ratioP1;P1;durP2;ratioP2;P2;SDS_P1;SDS_P2;PMS_P1;PMS_P2;Temp;Humidity;BMP_temperature;BMP_pressure;BME280_temperature;BME280_humidity;BME280_pressure;Samples;Min_cycle;Max_cycle;Signal;HPM_P1;HPM_P2
2022/09/25 00:02:07;;;;;;;;;;;;;;;;;;5050607;28;1337;-77
2022/09/25 00:04:34;;;;;;;;;;;;;;;;;;5050773;28;1056;-76
2022/09/25 00:07:00;;;;;;;;;;;;;;;;;;5033066;28;835;-77
2022/09/25 00:09:27;;;;;;;;;;;;;;;;;;5032981;28;1124;-77
2022/09/25 00:11:53;;;;;;;;;;;;;;;;;;5050550;28;1416;-76
2022/09/25 00:14:19;;;;;;;;;;;;;;;;;;5050791;28;874;-78
2022/09/25 00:16:45;;;;;;;;;;;;;;;;;;5050875;28;1123;-76
2022/09/25 00:21:56;;;;;;;;;;;;;;;;;;5032311;28;1390;-76
2022/09/25 00:24:22;;;;;;;;;;;;;;;;;;5032815;28;1112;-76
2022/09/25 00:26:49;;;;;;;;;;;;;;;;;;5054664;28;881;-77
2022/09/25 00:29:16;;;;;;;;;;;;;;;;;;5036427;28;1301;-77
2022/09/25 00:31:42;;;;;;;;;;;;;;;;;;5054211;28;1318;-77
2022/09/25 00:34:09;;;;;;;;;;;;;;;;;;5036544;28;1127;-77
2022/09/25 00:36:35;;;;;;;;;;;;;;;;;;5054337;28;855;-76
2022/09/25 00:39:03;;;;;;;;;;;;;;;;;;5036410;28;1981;-77
2022/09/25 00:41:30;;;;;;;;;;;;;;;;;;5053850;28;1364;-77
2022/09/25 00:43:57;;;;;;;;;;;;;;;;;;5054148;28;1079;-77
2022/09/25 00:46:24;;;;;;;;;;;;;;;;;;5054193;28;949;-77
2022/09/25 00:48:51;;;;;;;;;;;;;;;;;;5036073;28;1305;-77
2022/09/25 00:51:18;;;;;;;;;;;;;;;;;;5053952;28;1328;-75
2022/09/25 00:53:44;;;;;;;;;;;;;;;;;;5054237;28;1071;-77
2022/09/25 00:56:12;;;;;;;;;;;;;;;;;;5036145;28;1447;-76
2022/09/25 00:58:38;;;;;;;;;;;;;;;;;;5053864;28;1914;-76
2022/09/25 01:01:04;;;;;;;;;;;;;;;;;;5053708;28;1324;-75
2022/09/25 01:03:30;;;;;;;;;;;;;;;;;;5053677;28;879;-76
2022/09/25 01:05:58;;;;;;;;;;;;;;;;;;5053869;28;1000;-77
2022/09/25 01:08:25;;;;;;;;;;;;;;;;;;5053705;28;795;-76
2022/09/25 01:10:51;;;;;;;;;;;;;;;;;;5053738;28;1072;-76
2022/09/25 01:13:19;;;;;;;;;;;;;;;;;;5053088;28;1376;-77
2022/09/25 01:15:48;;;;;;;;;;;;;;;;;;5053622;28;1080;-76
2022/09/25 01:18:16;;;;;;;;;;;;;;;;;;5053406;28;1914;-77
2022/09/25 01:21:05;;;;;;;;;;;;;;;;;;5053563;28;957;-76
2022/09/25 01:23:37;;;;;;;;;;;;;;;;;;5053170;28;936;-77
2022/09/25 01:26:14;;;;;;;;;;;;;;;;;;5053576;28;830;-77
2022/09/25 01:28:53;;;;;;;;;;;;;;;;;;5035523;28;894;-76
2022/09/25 01:31:20;;;;;;;;;;;;;;;;;;5034950;28;1345;-77
2022/09/25 01:33:48;;;;;;;;;;;;;;;;;;5035339;28;1223;-77
2022/09/25 01:36:15;;;;;;;;;;;;;;;;;;5034976;28;1142;-77
2022/09/25 01:38:41;;;;;;;;;;;;;;;;;;5053157;28;1918;-76
2022/09/25 01:41:09;;;;;;;;;;;;;;;;;;5053054;28;1392;-76
2022/09/25 01:43:36;;;;;;;;;;;;;;;;;;5053014;28;1080;-77
2022/09/25 01:46:04;;;;;;;;;;;;;;;;;;5053307;28;861;-77
2022/09/25 01:48:31;;;;;;;;;;;;;;;;;;5053353;28;1055;-77
2022/09/25 01:50:59;;;;;;;;;;;;;;;;;;5053080;28;846;-76
2022/09/25 01:53:25;;;;;;;;;;;;;;;;;;5034587;28;1506;-76
2022/09/25 01:55:52;;;;;;;;;;;;;;;;;;5052780;28;1072;-77
2022/09/25 01:58:20;;;;;;;;;;;;;;;;;;5052414;28;1910;-77
2022/09/25 02:00:49;;;;;;;;;;;;;;;;;;5034801;28;1202;-78
2022/09/25 02:03:17;;;;;;;;;;;;;;;;;;5052176;28;1447;-77
2022/09/25 02:05:43;;;;;;;;;;;;;;;;;;5052771;28;993;-76
2022/09/25 02:08:10;;;;;;;;;;;;;;;;;;5052442;28;1056;-76
2022/09/25 02:10:37;;;;;;;;;;;;;;;;;;5052638;28;984;-76
2022/09/25 02:13:05;;;;;;;;;;;;;;;;;;5052036;28;1399;-77
2022/09/25 02:15:32;;;;;;;;;;;;;;;;;;5052332;28;996;-77
2022/09/25 02:20:44;;;;;;;;;;;;;;;;;;5052600;28;799;-77
2022/09/25 02:23:13;;;;;;;;;;;;;;;;;;5033993;28;1424;-77
2022/09/25 02:25:40;;;;;;;;;;;;;;;;;;5052342;28;901;-76
2022/09/25 02:28:06;;;;;;;;;;;;;;;;;;5052315;28;1108;-76
2022/09/25 02:30:32;;;;;;;;;;;;;;;;;;5051999;28;701;-77
2022/09/25 02:32:59;;;;;;;;;;;;;;;;;;5051848;28;1325;-77
2022/09/25 02:35:25;;;;;;;;;;;;;;;;;;5052096;28;790;-77
2022/09/25 02:37:52;;;;;;;;;;;;;;;;;;5052123;28;886;-76
2022/09/25 02:40:19;;;;;;;;;;;;;;;;;;5051932;28;1981;-76
2022/09/25 02:42:47;;;;;;;;;;;;;;;;;;5051519;28;1341;-76
2022/09/25 02:45:16;;;;;;;;;;;;;;;;;;5051963;28;1063;-76
2022/09/25 02:47:44;;;;;;;;;;;;;;;;;;5051317;28;774;-77
2022/09/25 02:50:13;;;;;;;;;;;;;;;;;;5051749;28;1084;-76
2022/09/25 02:52:41;;;;;;;;;;;;;;;;;;5033617;28;1422;-76
2022/09/25 02:55:09;;;;;;;;;;;;;;;;;;5033916;28;1317;-76
2022/09/25 02:57:37;;;;;;;;;;;;;;;;;;5051582;28;1089;-77
2022/09/25 03:00:05;;;;;;;;;;;;;;;;;;5051716;28;1915;-76
2022/09/25 03:02:32;;;;;;;;;;;;;;;;;;5051363;28;1397;-76
2022/09/25 03:04:58;;;;;;;;;;;;;;;;;;5051664;28;985;-77
2022/09/25 03:07:24;;;;;;;;;;;;;;;;;;5051450;28;1081;-76
2022/09/25 03:09:49;;;;;;;;;;;;;;;;;;5033891;28;1195;-76
2022/09/25 03:12:17;;;;;;;;;;;;;;;;;;5051318;28;1420;-77
2022/09/25 03:14:43;;;;;;;;;;;;;;;;;;5051722;28;1060;-77
2022/09/25 03:17:10;;;;;;;;;;;;;;;;;;5051656;28;940;-76
2022/09/25 03:19:37;;;;;;;;;;;;;;;;;;5034092;28;2096;-77
2022/09/25 03:22:03;;;;;;;;;;;;;;;;;;5050825;28;1393;-77
2022/09/25 03:24:30;;;;;;;;;;;;;;;;;;5051320;28;805;-76
2022/09/25 03:26:56;;;;;;;;;;;;;;;;;;5053310;28;1332;-77
2022/09/25 03:29:23;;;;;;;;;;;;;;;;;;5071475;28;1021;-76
2022/09/25 03:31:50;;;;;;;;;;;;;;;;;;5070779;28;1436;-76
2022/09/25 03:34:17;;;;;;;;;;;;;;;;;;5053266;28;1120;-76
2022/09/25 03:36:46;;;;;;;;;;;;;;;;;;5053205;28;1243;-76
2022/09/25 03:39:13;;;;;;;;;;;;;;;;;;5071080;28;1905;-76
2022/09/25 03:41:43;;;;;;;;;;;;;;;;;;5071682;28;1283;-73
2022/09/25 03:44:09;;;;;;;;;;;;;;;;;;5071151;28;1267;-76
2022/09/25 03:46:36;;;;;;;;;;;;;;;;;;5053127;28;1233;-76
2022/09/25 03:49:03;;;;;;;;;;;;;;;;;;5070918;28;1071;-77
2022/09/25 03:51:30;;;;;;;;;;;;;;;;;;5052630;28;1330;-76
2022/09/25 03:53:56;;;;;;;;;;;;;;;;;;5071176;28;1048;-77
2022/09/25 03:56:23;;;;;;;;;;;;;;;;;;5070846;28;841;-77
2022/09/25 03:58:50;;;;;;;;;;;;;;;;;;5037640;28;1922;-77
2022/09/25 04:01:18;;;;;;;;;;;;;;;;;;5036892;28;1334;-76
2022/09/25 04:03:46;;;;;;;;;;;;;;;;;;5055119;28;763;-77
2022/09/25 04:06:13;;;;;;;;;;;;;;;;;;5054954;28;806;-76
2022/09/25 04:08:40;;;;;;;;;;;;;;;;;;5054954;28;1005;-76
2022/09/25 04:11:06;;;;;;;;;;;;;;;;;;5054798;28;1396;-77
2022/09/25 04:13:33;;;;;;;;;;;;;;;;;;5054321;28;855;-76
2022/09/25 04:15:59;;;;;;;;;;;;;;;;;;5037104;28;1274;-76
2022/09/25 04:18:27;;;;;;;;;;;;;;;;;;5054675;28;1063;-76
2022/09/25 04:20:54;;;;;;;;;;;;;;;;;;5054764;28;1972;-76
2022/09/25 04:23:20;;;;;;;;;;;;;;;;;;5036189;28;1323;-77
2022/09/25 04:25:47;;;;;;;;;;;;;;;;;;5054532;28;953;-76
2022/09/25 04:28:14;;;;;;;;;;;;;;;;;;5036553;28;1119;-76
2022/09/25 04:30:40;;;;;;;;;;;;;;;;;;5054451;28;901;-76
2022/09/25 04:35:50;;;;;;;;;;;;;;;;;;5036582;28;1310;-76
2022/09/25 04:38:18;;;;;;;;;;;;;;;;;;5036271;28;1138;-76
2022/09/25 04:40:44;;;;;;;;;;;;;;;;;;5054372;28;1924;-76
2022/09/25 04:43:11;;;;;;;;;;;;;;;;;;5053629;28;1330;-76
2022/09/25 04:45:37;;;;;;;;;;;;;;;;;;5054121;28;877;-76
2022/09/25 04:48:03;;;;;;;;;;;;;;;;;;5036337;28;1203;-76
2022/09/25 04:50:29;;;;;;;;;;;;;;;;;;5036218;28;1370;-76
2022/09/25 04:53:01;;;;;;;;;;;;;;;;;;5035843;28;1495;-76
2022/09/25 04:55:28;;;;;;;;;;;;;;;;;;5035946;28;1140;-76
2022/09/25 04:57:55;;;;;;;;;;;;;;;;;;5053822;28;1028;-76
2022/09/25 05:00:21;;;;;;;;;;;;;;;;;;5053768;28;1979;-77
2022/09/25 05:02:48;;;;;;;;;;;;;;;;;;5053772;28;1324;-77
2022/09/25 05:05:14;;;;;;;;;;;;;;;;;;5053810;28;1123;-76
2022/09/25 05:07:40;;;;;;;;;;;;;;;;;;5054066;28;1064;-77
2022/09/25 05:10:07;;;;;;;;;;;;;;;;;;5035490;28;1210;-77
2022/09/25 05:12:35;;;;;;;;;;;;;;;;;;5052965;28;1318;-77
2022/09/25 05:15:02;;;;;;;;;;;;;;;;;;5035927;28;1122;-77
2022/09/25 05:17:28;;;;;;;;;;;;;;;;;;5053444;28;739;-76
2022/09/25 05:19:54;;;;;;;;;;;;;;;;;;5035775;28;1999;-76
2022/09/25 05:22:20;;;;;;;;;;;;;;;;;;5053001;28;1322;-77
2022/09/25 05:24:46;;;;;;;;;;;;;;;;;;5035625;28;1209;-77
2022/09/25 05:27:13;;;;;;;;;;;;;;;;;;5053363;28;1068;-77
2022/09/25 05:29:40;;;;;;;;;;;;;;;;;;5035596;28;1179;-76
2022/09/25 05:32:06;;;;;;;;;;;;;;;;;;5053012;28;1328;-76
2022/09/25 05:34:33;;;;;;;;;;;;;;;;;;5053135;28;1135;-76
2022/09/25 05:37:00;;;;;;;;;;;;;;;;;;5053249;28;1128;-77
2022/09/25 05:39:26;;;;;;;;;;;;;;;;;;5053061;28;1914;-76
2022/09/25 05:41:52;;;;;;;;;;;;;;;;;;5052758;28;1328;-77
2022/09/25 05:44:20;;;;;;;;;;;;;;;;;;5035075;28;1171;-76
2022/09/25 05:46:47;;;;;;;;;;;;;;;;;;5035294;28;1146;-76
2022/09/25 05:49:13;;;;;;;;;;;;;;;;;;5052923;28;941;-76
2022/09/25 05:51:39;;;;;;;;;;;;;;;;;;5052600;28;1354;-77
2022/09/25 05:54:06;;;;;;;;;;;;;;;;;;5052953;28;803;-77
2022/09/25 05:56:32;;;;;;;;;;;;;;;;;;5052835;28;1071;-76
2022/09/25 05:58:58;;;;;;;;;;;;;;;;;;5052812;28;913;-76
2022/09/25 06:01:25;;;;;;;;;;;;;;;;;;5052078;28;1972;-76
2022/09/25 06:03:53;;;;;;;;;;;;;;;;;;5052398;28;1517;-77
2022/09/25 06:06:19;;;;;;;;;;;;;;;;;;5052465;28;1084;-76
2022/09/25 06:08:45;;;;;;;;;;;;;;;;;;5034970;28;1180;-77
2022/09/25 06:11:11;;;;;;;;;;;;;;;;;;5034542;28;1323;-75
2022/09/25 06:13:37;;;;;;;;;;;;;;;;;;5034443;28;1298;-77
2022/09/25 06:16:04;;;;;;;;;;;;;;;;;;5052612;28;937;-76
2022/09/25 06:18:30;;;;;;;;;;;;;;;;;;5052393;28;782;-76
2022/09/25 06:21:00;;;;;;;;;;;;;;;;;;5052411;28;1977;-76
2022/09/25 06:23:26;;;;;;;;;;;;;;;;;;5050911;28;1415;-76
2022/09/25 06:25:52;;;;;;;;;;;;;;;;;;5034474;28;1257;-77
2022/09/25 06:28:18;;;;;;;;;;;;;;;;;;5052312;28;937;-76
2022/09/25 06:30:45;;;;;;;;;;;;;;;;;;5052230;28;1067;-77
2022/09/25 06:33:12;;;;;;;;;;;;;;;;;;5034078;28;1484;-76
2022/09/25 06:35:40;;;;;;;;;;;;;;;;;;5034328;28;1136;-76
2022/09/25 06:38:08;;;;;;;;;;;;;;;;;;5034323;28;1350;-76
2022/09/25 06:40:36;;;;;;;;;;;;;;;;;;5051946;28;1918;-75
2022/09/25 06:43:03;;;;;;;;;;;;;;;;;;5051478;28;1435;-76
2022/09/25 06:45:32;;;;;;;;;;;;;;;;;;5051922;28;1112;-76
2022/09/25 06:48:00;;;;;;;;;;;;;;;;;;5051966;28;1067;-76
2022/09/25 06:50:30;;;;;;;;;;;;;;;;;;5051950;28;1281;-76
2022/09/25 06:52:57;;;;;;;;;;;;;;;;;;5033595;28;1427;-75
2022/09/25 06:55:24;;;;;;;;;;;;;;;;;;5033932;28;1198;-74
2022/09/25 06:57:50;;;;;;;;;;;;;;;;;;5051490;28;1127;-77
2022/09/25 07:00:17;;;;;;;;;;;;;;;;;;5033564;28;1906;-76
2022/09/25 07:05:27;;;;;;;;;;;;;;;;;;5051577;28;1008;-76
2022/09/25 07:07:54;;;;;;;;;;;;;;;;;;5051796;28;798;-76
2022/09/25 07:10:20;;;;;;;;;;;;;;;;;;5051800;28;961;-77
2022/09/25 07:12:47;;;;;;;;;;;;;;;;;;5050988;28;1380;-76
2022/09/25 07:15:14;;;;;;;;;;;;;;;;;;5034994;28;1353;-76
2022/09/25 07:17:41;;;;;;;;;;;;;;;;;;5051740;28;989;-77
2022/09/25 07:20:09;;;;;;;;;;;;;;;;;;5033375;28;1902;-77
2022/09/25 07:22:35;;;;;;;;;;;;;;;;;;5033049;28;1497;-76
2022/09/25 07:25:01;;;;;;;;;;;;;;;;;;5033515;28;1138;-76
2022/09/25 07:27:27;;;;;;;;;;;;;;;;;;5051445;28;957;-76
2022/09/25 07:29:55;;;;;;;;;;;;;;;;;;5051295;28;1060;-76
2022/09/25 07:32:21;;;;;;;;;;;;;;;;;;5050666;28;1395;-77
2022/09/25 07:34:49;;;;;;;;;;;;;;;;;;5050960;28;964;-77
2022/09/25 07:37:15;;;;;;;;;;;;;;;;;;5051350;28;1079;-77
2022/09/25 07:39:41;;;;;;;;;;;;;;;;;;5033518;28;1247;-76
2022/09/25 07:42:07;;;;;;;;;;;;;;;;;;5050862;28;1910;-76
2022/09/25 07:44:33;;;;;;;;;;;;;;;;;;5051212;28;1099;-77
2022/09/25 07:47:02;;;;;;;;;;;;;;;;;;5051445;28;775;-76
2022/09/25 07:49:28;;;;;;;;;;;;;;;;;;5051314;28;1122;-75
2022/09/25 07:51:55;;;;;;;;;;;;;;;;;;5051018;28;1305;-75
2022/09/25 07:54:21;;;;;;;;;;;;;;;;;;5051449;28;965;-75
2022/09/25 07:56:47;;;;;;;;;;;;;;;;;;5033235;28;1275;-76
2022/09/25 07:59:13;;;;;;;;;;;;;;;;;;5033313;28;1135;-76
2022/09/25 08:01:39;;;;;;;;;;;;;;;;;;5050303;28;1911;-76
2022/09/25 08:04:07;;;;;;;;;;;;;;;;;;5033269;28;1358;-76
2022/09/25 08:06:33;;;;;;;;;;;;;;;;;;5051010;28;1108;-77
2022/09/25 08:08:59;;;;;;;;;;;;;;;;;;5051487;28;874;-78
2022/09/25 08:11:26;;;;;;;;;;;;;;;;;;5050658;28;1345;-77
2022/09/25 08:13:53;;;;;;;;;;;;;;;;;;5051179;28;1055;-78
2022/09/25 08:16:21;;;;;;;;;;;;;;;;;;5051100;28;795;-78
2022/09/25 08:18:47;;;;;;;;;;;;;;;;;;5033291;28;1148;-78
2022/09/25 08:21:15;;;;;;;;;;;;;;;;;;5051163;28;1919;-76
2022/09/25 08:23:42;;;;;;;;;;;;;;;;;;5033201;28;1296;-78
2022/09/25 08:26:08;;;;;;;;;;;;;;;;;;5051404;28;795;-76
2022/09/25 08:28:34;;;;;;;;;;;;;;;;;;5050975;28;1067;-77
2022/09/25 08:31:03;;;;;;;;;;;;;;;;;;5051000;28;790;-76
2022/09/25 08:33:29;;;;;;;;;;;;;;;;;;5032838;28;1115;-76
2022/09/25 08:35:56;;;;;;;;;;;;;;;;;;5033035;28;1107;-75
2022/09/25 08:38:24;;;;;;;;;;;;;;;;;;5050816;28;1072;-77
2022/09/25 08:40:51;;;;;;;;;;;;;;;;;;5050686;28;1979;-76
2022/09/25 08:43:19;;;;;;;;;;;;;;;;;;5050088;28;1427;-76
2022/09/25 08:51:14;;;;;;;;;;;;;;;;;;5054520;28;1309;-76
2022/09/25 08:53:42;;;;;;;;;;;;;;;;;;5054222;28;1063;-76
2022/09/25 08:56:16;;;;;;;;;;;;;;;;;;5036235;28;1248;-76
2022/09/25 08:58:43;;;;;;;;;;;;;;;;;;5054327;28;890;-76
2022/09/25 09:01:12;;;;;;;;;;;;;;;;;;5036187;28;1914;-76
2022/09/25 09:03:40;;;;;;;;;;;;;;;;;;5053952;28;1068;-76
2022/09/25 09:06:07;;;;;;;;;;;;;;;;;;5054142;28;1111;-76
2022/09/25 09:08:34;;;;;;;;;;;;;;;;;;5053799;28;1114;-75
2022/09/25 09:11:03;;;;;;;;;;;;;;;;;;5053851;28;779;-76
2022/09/25 09:13:31;;;;;;;;;;;;;;;;;;5053350;28;1378;-75
2022/09/25 09:15:59;;;;;;;;;;;;;;;;;;5054072;28;1072;-76
2022/09/25 09:18:25;;;;;;;;;;;;;;;;;;5053676;28;1127;-76
2022/09/25 09:20:52;;;;;;;;;;;;;;;;;;5054812;28;1974;-78
2022/09/25 09:23:19;;;;;;;;;;;;;;;;;;5055690;28;1335;-77
2022/09/25 09:25:47;;;;;;;;;;;;;;;;;;5053625;28;937;-75
2022/09/25 09:28:21;;;;;;;;;;;;;;;;;;5053637;28;779;-76
2022/09/25 09:30:49;;;;;;;;;;;;;;;;;;5053542;28;870;-75
2022/09/25 09:33:21;;;;;;;;;;;;;;;;;;5035421;28;1412;-76
2022/09/25 09:35:52;;;;;;;;;;;;;;;;;;5053506;28;1381;-76
2022/09/25 09:38:22;;;;;;;;;;;;;;;;;;5035543;28;1213;-78
2022/09/25 09:40:57;;;;;;;;;;;;;;;;;;5053251;28;1906;-76
2022/09/25 09:43:30;;;;;;;;;;;;;;;;;;5052799;28;1334;-76
2022/09/25 09:45:57;;;;;;;;;;;;;;;;;;5054362;28;1255;-77
2022/09/25 09:48:25;;;;;;;;;;;;;;;;;;5052164;28;2049;-76
2022/09/25 09:50:52;;;;;;;;;;;;;;;;;;5053108;28;1114;-76
2022/09/25 09:53:22;;;;;;;;;;;;;;;;;;5052869;28;1269;-76
2022/09/25 09:55:49;;;;;;;;;;;;;;;;;;5034978;28;1528;-76
2022/09/25 09:58:18;;;;;;;;;;;;;;;;;;5050313;28;1706;-77
2022/09/25 10:00:46;;;;;;;;;;;;;;;;;;5033050;28;1972;-76
2022/09/25 10:03:12;;;;;;;;;;;;;;;;;;5032676;28;1451;-76
2022/09/25 10:05:39;;;;;;;;;;;;;;;;;;5033078;28;1056;-77
2022/09/25 10:08:05;;;;;;;;;;;;;;;;;;5032925;28;1112;-76
2022/09/25 10:10:33;;;;;;;;;;;;;;;;;;5032922;28;1108;-76
2022/09/25 10:13:04;;;;;;;;;;;;;;;;;;5032242;28;1412;-75
2022/09/25 10:15:32;;;;;;;;;;;;;;;;;;5019300;28;1122;-77
2022/09/25 10:18:00;;;;;;;;;;;;;;;;;;5041658;28;1259;-76
2022/09/25 10:20:29;;;;;;;;;;;;;;;;;;5043075;28;1604;-79
2022/09/25 10:23:05;;;;;;;;;;;;;;;;;;5025148;28;1979;-78
2022/09/25 10:25:36;;;;;;;;;;;;;;;;;;5035135;28;1382;-77
2022/09/25 10:28:20;;;;;;;;;;;;;;;;;;5032424;28;788;-77
2022/09/25 10:30:46;;;;;;;;;;;;;;;;;;5035488;28;1095;-77
2022/09/25 10:33:15;;;;;;;;;;;;;;;;;;5032700;28;1436;-77
2022/09/25 10:35:41;;;;;;;;;;;;;;;;;;5032336;28;918;-77
2022/09/25 10:38:16;;;;;;;;;;;;;;;;;;5032285;28;1067;-76
2022/09/25 10:40:43;;;;;;;;;;;;;;;;;;5032260;28;962;-76
2022/09/25 10:43:16;;;;;;;;;;;;;;;;;;5013927;28;1926;-76
2022/09/25 10:45:43;;;;;;;;;;;;;;;;;;5032225;28;993;-76
2022/09/25 10:51:09;;;;;;;;;;;;;;;;;;5031837;28;1299;-76
2022/09/25 10:53:36;;;;;;;;;;;;;;;;;;5031835;28;744;-76
2022/09/25 10:56:03;;;;;;;;;;;;;;;;;;5031939;28;1099;-76
2022/09/25 10:58:31;;;;;;;;;;;;;;;;;;5042223;28;1629;-76
2022/09/25 11:00:57;;;;;;;;;;;;;;;;;;5051813;28;1072;-77
2022/09/25 11:03:24;;;;;;;;;;;;;;;;;;5051332;28;1321;-78
2022/09/25 11:05:52;;;;;;;;;;;;;;;;;;5051862;28;1020;-76
2022/09/25 11:08:22;;;;;;;;;;;;;;;;;;5051121;28;1417;-76
2022/09/25 11:10:49;;;;;;;;;;;;;;;;;;5051661;28;1064;-76
2022/09/25 11:13:18;;;;;;;;;;;;;;;;;;5051301;28;1431;-76
2022/09/25 11:15:47;;;;;;;;;;;;;;;;;;5051644;28;794;-76
2022/09/25 11:18:30;;;;;;;;;;;;;;;;;;5051526;28;1080;-76
2022/09/25 11:21:00;;;;;;;;;;;;;;;;;;5051442;28;1112;-77
2022/09/25 11:23:31;;;;;;;;;;;;;;;;;;5033060;28;1973;-76
2022/09/25 11:25:58;;;;;;;;;;;;;;;;;;5051440;28;1076;-76
2022/09/25 11:28:27;;;;;;;;;;;;;;;;;;5051137;28;1111;-76
2022/09/25 11:30:54;;;;;;;;;;;;;;;;;;5051269;28;1063;-76
2022/09/25 11:33:23;;;;;;;;;;;;;;;;;;5050547;28;1352;-76
2022/09/25 11:35:51;;;;;;;;;;;;;;;;;;5051414;28;1068;-78
2022/09/25 11:41:21;;;;;;;;;;;;;;;;;;5050938;28;1906;-76
2022/09/25 11:43:51;;;;;;;;;;;;;;;;;;5051183;28;1111;-76
2022/09/25 11:46:20;;;;;;;;;;;;;;;;;;5033235;28;1274;-76
2022/09/25 11:48:49;;;;;;;;;;;;;;;;;;5051058;28;940;-76
2022/09/25 11:51:17;;;;;;;;;;;;;;;;;;5032529;28;1354;-77
2022/09/25 11:53:45;;;;;;;;;;;;;;;;;;5050665;28;1640;-76
2022/09/25 11:56:19;;;;;;;;;;;;;;;;;;5050906;28;1119;-76
2022/09/25 11:58:49;;;;;;;;;;;;;;;;;;5033109;28;1372;-75
2022/09/25 12:01:19;;;;;;;;;;;;;;;;;;5048962;28;1524;-75
2022/09/25 12:03:52;;;;;;;;;;;;;;;;;;5024852;28;1737;-76
2022/09/25 12:06:33;;;;;;;;;;;;;;;;;;5043981;28;1312;-76
2022/09/25 12:09:05;;;;;;;;;;;;;;;;;;5033842;28;1328;-76
2022/09/25 12:11:44;;;;;;;;;;;;;;;;;;5031530;28;1555;-76
2022/09/25 12:14:12;;;;;;;;;;;;;;;;;;5026598;28;1666;-76
2022/09/25 12:16:41;;;;;;;;;;;;;;;;;;5048754;28;1332;-76
2022/09/25 12:19:11;;;;;;;;;;;;;;;;;;5021376;28;1381;-76
2022/09/25 12:21:40;;;;;;;;;;;;;;;;;;5047545;28;1898;-76
2022/09/25 12:24:09;;;;;;;;;;;;;;;;;;5044300;28;1099;-76
2022/09/25 12:26:39;;;;;;;;;;;;;;;;;;5052598;28;1066;-76
2022/09/25 12:29:09;;;;;;;;;;;;;;;;;;5052589;28;820;-76
2022/09/25 12:31:38;;;;;;;;;;;;;;;;;;5053320;28;1509;-76
2022/09/25 12:34:07;;;;;;;;;;;;;;;;;;5041765;28;1475;-76
2022/09/25 12:36:35;;;;;;;;;;;;;;;;;;5028084;28;1485;-76
2022/09/25 12:39:07;;;;;;;;;;;;;;;;;;5048717;28;1116;-75
2022/09/25 12:41:34;;;;;;;;;;;;;;;;;;5032189;28;1921;-77
2022/09/25 12:44:03;;;;;;;;;;;;;;;;;;5050441;28;1386;-78
2022/09/25 12:46:30;;;;;;;;;;;;;;;;;;5026696;28;1344;-78
2022/09/25 12:48:58;;;;;;;;;;;;;;;;;;5045887;28;1530;-77
2022/09/25 12:51:25;;;;;;;;;;;;;;;;;;5051493;28;1442;-80
2022/09/25 12:53:55;;;;;;;;;;;;;;;;;;5050049;28;1501;-76
2022/09/25 12:56:23;;;;;;;;;;;;;;;;;;5033378;28;1460;-76
2022/09/25 12:59:01;;;;;;;;;;;;;;;;;;5048123;28;1434;-76
2022/09/25 13:01:31;;;;;;;;;;;;;;;;;;5031665;28;1345;-75
2022/09/25 13:04:03;;;;;;;;;;;;;;;;;;5042425;28;1922;-77
2022/09/25 13:06:31;;;;;;;;;;;;;;;;;;5041476;28;1432;-77
2022/09/25 13:08:57;;;;;;;;;;;;;;;;;;5051649;28;1131;-76
2022/09/25 13:11:28;;;;;;;;;;;;;;;;;;5050942;28;1417;-81
2022/09/25 13:13:55;;;;;;;;;;;;;;;;;;5030866;28;1322;-76
2022/09/25 13:16:21;;;;;;;;;;;;;;;;;;5053221;28;1600;-77
2022/09/25 13:18:50;;;;;;;;;;;;;;;;;;5053601;28;1175;-76
2022/09/25 13:21:23;;;;;;;;;;;;;;;;;;5035132;28;1383;-77
2022/09/25 13:23:50;;;;;;;;;;;;;;;;;;5053830;28;1914;-76
2022/09/25 13:26:16;;;;;;;;;;;;;;;;;;5053291;28;810;-78
2022/09/25 13:28:47;;;;;;;;;;;;;;;;;;5053374;28;1080;-77
2022/09/25 13:31:20;;;;;;;;;;;;;;;;;;5052986;28;1317;-77
2022/09/25 13:33:48;;;;;;;;;;;;;;;;;;5053241;28;1116;-77
2022/09/25 13:36:22;;;;;;;;;;;;;;;;;;5053254;28;1064;-76
2022/09/25 13:41:32;;;;;;;;;;;;;;;;;;5052609;28;1330;-77
2022/09/25 13:44:22;;;;;;;;;;;;;;;;;;5053113;28;1977;-76
2022/09/25 13:46:48;;;;;;;;;;;;;;;;;;5032983;28;1165;-76
2022/09/25 13:49:31;;;;;;;;;;;;;;;;;;5052760;28;1083;-77
2022/09/25 13:51:58;;;;;;;;;;;;;;;;;;5052720;28;1333;-76
2022/09/25 13:54:25;;;;;;;;;;;;;;;;;;5052453;28;1469;-77
2022/09/25 13:56:54;;;;;;;;;;;;;;;;;;5035036;28;1198;-76
2022/09/25 13:59:21;;;;;;;;;;;;;;;;;;5052806;28;1118;-76
2022/09/25 14:01:48;;;;;;;;;;;;;;;;;;5034579;28;1360;-76
2022/09/25 14:04:14;;;;;;;;;;;;;;;;;;5034475;28;1922;-77
2022/09/25 14:06:41;;;;;;;;;;;;;;;;;;5052584;28;1118;-76
2022/09/25 14:09:09;;;;;;;;;;;;;;;;;;5052832;28;1079;-76
2022/09/25 14:11:36;;;;;;;;;;;;;;;;;;5034102;28;1412;-76
2022/09/25 14:14:03;;;;;;;;;;;;;;;;;;5052418;28;1143;-76
2022/09/25 14:16:30;;;;;;;;;;;;;;;;;;5052210;28;1143;-76
2022/09/25 14:18:56;;;;;;;;;;;;;;;;;;5053325;28;799;-80
2022/09/25 14:21:22;;;;;;;;;;;;;;;;;;5054372;28;1431;-79
2022/09/25 14:23:49;;;;;;;;;;;;;;;;;;5052917;28;1961;-77
2022/09/25 14:26:20;;;;;;;;;;;;;;;;;;5052222;28;1076;-76
2022/09/25 14:28:46;;;;;;;;;;;;;;;;;;5052370;28;1075;-76
2022/09/25 14:31:16;;;;;;;;;;;;;;;;;;5052181;28;1348;-77
2022/09/25 14:33:51;;;;;;;;;;;;;;;;;;5034198;28;1343;-76
2022/09/25 14:36:21;;;;;;;;;;;;;;;;;;5052146;28;1067;-77
2022/09/25 14:38:51;;;;;;;;;;;;;;;;;;5034299;28;1320;-77
2022/09/25 14:41:28;;;;;;;;;;;;;;;;;;5051613;28;1337;-75
2022/09/25 14:43:59;;;;;;;;;;;;;;;;;;5049254;28;2006;-77
2022/09/25 14:46:25;;;;;;;;;;;;;;;;;;5031908;28;921;-77
2022/09/25 14:48:53;;;;;;;;;;;;;;;;;;5035596;28;1388;-77
2022/09/25 14:51:21;;;;;;;;;;;;;;;;;;5025143;28;1403;-77
2022/09/25 14:53:48;;;;;;;;;;;;;;;;;;5051692;28;1130;-76
2022/09/25 14:56:14;;;;;;;;;;;;;;;;;;5051704;28;799;-76
2022/09/25 14:58:43;;;;;;;;;;;;;;;;;;5066371;28;1189;-76
2022/09/25 15:01:12;;;;;;;;;;;;;;;;;;5051380;28;1305;-74
2022/09/25 15:03:42;;;;;;;;;;;;;;;;;;5051323;28;1906;-75
2022/09/25 15:06:08;;;;;;;;;;;;;;;;;;5051380;28;956;-76
2022/09/25 15:08:35;;;;;;;;;;;;;;;;;;5051483;28;1067;-76
2022/09/25 15:11:02;;;;;;;;;;;;;;;;;;5049513;28;1538;-75
2022/09/25 15:13:32;;;;;;;;;;;;;;;;;;5047554;28;1671;-78
2022/09/25 15:18:44;;;;;;;;;;;;;;;;;;5051911;28;973;-77
2022/09/25 15:21:13;;;;;;;;;;;;;;;;;;5049669;28;1336;-75
2022/09/25 15:23:39;;;;;;;;;;;;;;;;;;5049838;28;1926;-76
2022/09/25 15:26:06;;;;;;;;;;;;;;;;;;5042276;28;1352;-76
2022/09/25 15:28:33;;;;;;;;;;;;;;;;;;5038994;28;1429;-76
2022/09/25 15:31:02;;;;;;;;;;;;;;;;;;5024244;28;1151;-76
2022/09/25 15:33:30;;;;;;;;;;;;;;;;;;5048530;28;1335;-76
2022/09/25 15:35:56;;;;;;;;;;;;;;;;;;5047690;28;1290;-76
2022/09/25 15:38:28;;;;;;;;;;;;;;;;;;5022115;28;1393;-76
2022/09/25 15:40:54;;;;;;;;;;;;;;;;;;5029308;28;1202;-77
2022/09/25 15:43:21;;;;;;;;;;;;;;;;;;5046679;28;1906;-77
2022/09/25 15:45:48;;;;;;;;;;;;;;;;;;5040854;28;1167;-77
2022/09/25 15:48:19;;;;;;;;;;;;;;;;;;5030901;28;1204;-76
2022/09/25 15:50:45;;;;;;;;;;;;;;;;;;5030269;28;1440;-76
2022/09/25 15:53:17;;;;;;;;;;;;;;;;;;5046639;28;1498;-76
2022/09/25 15:55:44;;;;;;;;;;;;;;;;;;5048153;28;1530;-75
2022/09/25 15:58:11;;;;;;;;;;;;;;;;;;5028681;28;1417;-76
2022/09/25 16:06:12;;;;;;;;;;;;;;;;;;5050381;28;1941;-76
2022/09/25 16:08:38;;;;;;;;;;;;;;;;;;5052485;28;1147;-76
2022/09/25 16:11:05;;;;;;;;;;;;;;;;;;5050216;28;1569;-76
2022/09/25 16:13:32;;;;;;;;;;;;;;;;;;5041570;28;1298;-77
2022/09/25 16:15:59;;;;;;;;;;;;;;;;;;5050481;28;1775;-76
2022/09/25 16:18:35;;;;;;;;;;;;;;;;;;5054388;28;1150;-75
2022/09/25 16:21:09;;;;;;;;;;;;;;;;;;5052005;28;1972;-76
2022/09/25 16:23:37;;;;;;;;;;;;;;;;;;5045673;28;1914;-76
2022/09/25 16:26:03;;;;;;;;;;;;;;;;;;5064460;22;4076;-72
2022/09/25 16:28:30;;;;;;;;;;;;;;;;;;5053201;28;1182;-73
2022/09/25 16:30:58;;;;;;;;;;;;;;;;;;5040528;28;1113;-72
2022/09/25 16:33:25;;;;;;;;;;;;;;;;;;5024856;28;1288;-73
2022/09/25 16:35:52;;;;;;;;;;;;;;;;;;5041250;28;1550;-71
2022/09/25 16:38:25;;;;;;;;;;;;;;;;;;5015681;28;1780;-73
2022/09/25 16:40:59;;;;;;;;;;;;;;;;;;5033860;28;1156;-72
2022/09/25 16:43:26;;;;;;;;;;;;;;;;;;5033723;28;1977;-73
2022/09/25 16:45:56;;;;;;;;;;;;;;;;;;5030434;28;1930;-73
2022/09/25 16:48:30;;;;;;;;;;;;;;;;;;5023450;28;1669;-73
2022/09/25 16:50:58;;;;;;;;;;;;;;;;;;5028486;28;1656;-72
2022/09/25 16:53:25;;;;;;;;;;;;;;;;;;5027161;28;1681;-73
2022/09/25 16:55:52;;;;;;;;;;;;;;;;;;5030388;28;1708;-72
2022/09/25 16:58:18;;;;;;;;;;;;;;;;;;5030150;28;1496;-72
2022/09/25 17:00:44;;;;;;;;;;;;;;;;;;5031454;28;1080;-73
2022/09/25 17:03:10;;;;;;;;;;;;;;;;;;5037696;28;1981;-72
2022/09/25 17:05:37;;;;;;;;;;;;;;;;;;5041478;28;1431;-72
2022/09/25 17:08:11;;;;;;;;;;;;;;;;;;5038654;28;1733;-72
2022/09/25 17:10:39;;;;;;;;;;;;;;;;;;5038823;28;1254;-72
2022/09/25 17:13:05;;;;;;;;;;;;;;;;;;5031754;28;1135;-74
2022/09/25 17:15:32;;;;;;;;;;;;;;;;;;5019799;28;1552;-73
2022/09/25 17:18:00;;;;;;;;;;;;;;;;;;5037241;28;1527;-71
2022/09/25 17:20:26;;;;;;;;;;;;;;;;;;5035231;28;1196;-73
2022/09/25 17:22:53;;;;;;;;;;;;;;;;;;5020642;28;1484;-73
2022/09/25 17:25:25;;;;;;;;;;;;;;;;;;5032865;28;1975;-73
2022/09/25 17:27:51;;;;;;;;;;;;;;;;;;5034277;28;1548;-73
2022/09/25 17:30:18;;;;;;;;;;;;;;;;;;5029004;28;1564;-73
2022/09/25 17:32:44;;;;;;;;;;;;;;;;;;5030845;28;1386;-73
2022/09/25 17:35:19;;;;;;;;;;;;;;;;;;5030830;28;1408;-74
2022/09/25 17:37:45;;;;;;;;;;;;;;;;;;5012631;28;2079;-72
2022/09/25 17:40:11;;;;;;;;;;;;;;;;;;5030789;28;1178;-73
2022/09/25 17:42:39;;;;;;;;;;;;;;;;;;5030672;28;892;-73
2022/09/25 17:45:09;;;;;;;;;;;;;;;;;;5030554;28;1891;-73